createdAt,value
2022-12-16T00:00:11.768Z,7.47
2022-12-16T00:02:39.291Z,7.07
2022-12-16T00:05:07.073Z,7.10
2022-12-16T00:07:35.407Z,6.40
2022-12-16T00:10:02.973Z,7.30
2022-12-16T00:12:30.307Z,5.32
2022-12-16T00:14:57.664Z,5.57
2022-12-16T00:17:25.050Z,6.15
2022-12-16T00:19:52.423Z,7.65
2022-12-16T00:22:19.742Z,7.97
2022-12-16T00:24:47.175Z,6.57
2022-12-16T00:27:14.507Z,6.43
2022-12-16T00:29:41.825Z,6.10
2022-12-16T00:32:09.277Z,5.75
2022-12-16T00:34:36.585Z,5.70
2022-12-16T00:37:06.564Z,7.32
2022-12-16T00:39:33.940Z,7.07
2022-12-16T00:42:01.251Z,7.25
2022-12-16T00:44:28.620Z,5.72
2022-12-16T00:46:55.972Z,5.00
2022-12-16T00:49:23.285Z,5.47
2022-12-16T00:51:50.696Z,6.15
2022-12-16T00:54:17.997Z,5.85
2022-12-16T00:56:45.289Z,5.32
2022-12-16T00:59:12.638Z,5.07
2022-12-16T01:01:40.146Z,5.43
2022-12-16T01:04:07.573Z,4.45
2022-12-16T01:06:35.623Z,5.57
2022-12-16T01:09:03.120Z,6.20
2022-12-16T01:11:30.414Z,5.32
2022-12-16T01:13:59.289Z,4.13
2022-12-16T01:16:29.405Z,4.43
2022-12-16T01:18:56.857Z,4.13
2022-12-16T01:21:24.167Z,4.18
2022-12-16T01:23:52.055Z,4.45
2022-12-16T01:26:22.617Z,4.18
2022-12-16T01:28:50.009Z,3.97
2022-12-16T01:31:19.332Z,4.60
2022-12-16T01:33:46.897Z,4.07
2022-12-16T01:36:14.401Z,3.50
2022-12-16T01:38:44.252Z,4.22
2022-12-16T01:41:13.681Z,5.78
2022-12-16T01:43:42.759Z,3.38
2022-12-16T01:46:13.324Z,4.43
2022-12-16T01:49:06.906Z,4.05
2022-12-16T01:51:47.521Z,3.25
2022-12-16T01:57:13.791Z,3.80
2022-12-16T01:59:45.707Z,5.13
2022-12-16T02:05:01.486Z,4.22
2022-12-16T02:07:28.835Z,4.53
2022-12-16T02:09:56.631Z,5.10
2022-12-16T02:15:37.716Z,5.22
2022-12-16T02:18:33.409Z,4.85
2022-12-16T02:21:44.053Z,6.57
2022-12-16T02:24:39.749Z,4.90
2022-12-16T02:30:47.581Z,5.43
2022-12-16T02:33:41.624Z,5.78
2022-12-16T02:36:22.032Z,5.47
2022-12-16T02:39:27.730Z,5.68
2022-12-16T02:42:07.336Z,4.90
2022-12-16T02:47:34.721Z,5.40
2022-12-16T02:50:02.969Z,6.85
2022-12-16T02:52:34.224Z,7.30
2022-12-16T02:55:09.143Z,6.07
2022-12-16T02:57:36.412Z,6.82
2022-12-16T03:00:17.110Z,6.30
2022-12-16T03:02:57.020Z,7.40
2022-12-16T03:05:37.594Z,6.38
2022-12-16T03:08:13.778Z,8.00
2022-12-16T03:10:46.664Z,7.75
2022-12-16T03:13:17.405Z,7.75
2022-12-16T03:16:07.979Z,7.30
2022-12-16T03:21:25.602Z,7.05
2022-12-16T03:24:02.835Z,8.05
2022-12-16T03:26:40.986Z,8.20
2022-12-16T03:29:14.309Z,7.85
2022-12-16T03:31:49.894Z,8.38
2022-12-16T03:37:24.401Z,8.85
2022-12-16T03:39:55.508Z,7.03
2022-12-16T03:42:24.113Z,7.70
2022-12-16T03:44:51.473Z,10.77
2022-12-16T03:47:23.583Z,6.82
2022-12-16T03:49:51.567Z,7.75
2022-12-16T03:55:03.807Z,6.78
2022-12-16T03:57:31.096Z,7.65
2022-12-16T03:59:58.397Z,7.32
2022-12-16T04:02:25.896Z,7.70
2022-12-16T04:04:53.391Z,8.32
2022-12-16T04:10:07.429Z,9.50
2022-12-16T04:12:53.590Z,6.40
2022-12-16T04:15:39.525Z,7.93
2022-12-16T04:18:35.660Z,6.85
2022-12-16T04:21:22.498Z,7.22
2022-12-16T04:27:17.134Z,7.20
2022-12-16T04:30:03.143Z,7.18
2022-12-16T04:32:50.933Z,8.02
2022-12-16T04:35:37.276Z,7.75
2022-12-16T04:38:23.172Z,8.32
2022-12-16T04:44:12.779Z,9.98
2022-12-16T04:47:18.077Z,9.52
2022-12-16T04:50:04.333Z,9.35
2022-12-16T04:52:50.274Z,9.65
2022-12-16T04:55:36.254Z,11.63
2022-12-16T05:01:36.590Z,10.98
2022-12-16T05:04:22.454Z,11.68
2022-12-16T05:07:08.209Z,10.93
2022-12-16T05:09:54.436Z,13.93
2022-12-16T05:12:40.391Z,11.70
2022-12-16T05:15:26.569Z,13.13
2022-12-16T05:18:12.291Z,19.08
2022-12-16T05:20:58.260Z,16.55
2022-12-16T05:23:44.254Z,14.80
2022-12-16T05:26:30.725Z,14.35
2022-12-16T05:29:16.682Z,13.85
2022-12-16T05:35:06.140Z,14.30
2022-12-16T05:37:52.102Z,13.05
2022-12-16T05:40:38.094Z,12.93
2022-12-16T05:43:24.051Z,14.85
2022-12-16T05:46:10.043Z,15.50
2022-12-16T05:48:55.798Z,14.32
2022-12-16T05:51:41.729Z,13.23
2022-12-16T05:54:27.805Z,16.23
2022-12-16T05:57:13.736Z,13.52
2022-12-16T05:59:59.726Z,14.05
2022-12-16T06:02:45.863Z,14.45
2022-12-16T06:05:33.119Z,14.88
2022-12-16T06:08:19.239Z,15.25
2022-12-16T06:11:05.214Z,15.27
2022-12-16T06:13:51.142Z,15.38
2022-12-16T06:16:37.094Z,15.93
2022-12-16T06:19:23.222Z,15.88
2022-12-16T06:22:09.216Z,15.57
2022-12-16T06:24:55.161Z,17.65
2022-12-16T06:27:41.373Z,18.58
2022-12-16T06:30:28.399Z,19.52
2022-12-16T06:33:14.367Z,20.67
2022-12-16T06:36:00.257Z,21.35
2022-12-16T06:38:46.336Z,23.20
2022-12-16T06:41:35.010Z,22.33
2022-12-16T06:44:31.691Z,21.30
2022-12-16T06:47:17.855Z,22.65
2022-12-16T06:50:03.672Z,25.15
2022-12-16T06:52:49.690Z,23.38
2022-12-16T06:55:35.662Z,24.67
2022-12-16T06:58:24.073Z,24.67
2022-12-16T07:01:10.400Z,24.83
2022-12-16T07:03:56.297Z,22.08
2022-12-16T07:06:42.476Z,24.25
2022-12-16T07:09:29.025Z,24.77
2022-12-16T07:12:15.053Z,22.83
2022-12-16T07:15:00.847Z,23.20
2022-12-16T07:17:46.864Z,23.92
2022-12-16T07:20:32.707Z,22.52
2022-12-16T07:23:20.039Z,23.95
2022-12-16T07:26:06.100Z,24.83
2022-12-16T07:28:51.926Z,20.58
2022-12-16T07:31:37.884Z,22.15
2022-12-16T07:34:23.610Z,23.10
2022-12-16T07:37:12.178Z,20.38
2022-12-16T07:40:14.599Z,24.33
2022-12-16T07:43:21.335Z,19.23
2022-12-16T07:46:07.220Z,22.88
2022-12-16T07:48:52.986Z,20.90
2022-12-16T07:51:38.578Z,24.55
2022-12-16T07:54:33.376Z,20.95
2022-12-16T07:57:19.043Z,22.15
2022-12-16T08:00:05.079Z,20.55
2022-12-16T08:02:58.315Z,27.75
2022-12-16T08:05:44.298Z,25.55
2022-12-16T08:08:30.330Z,24.13
2022-12-16T08:11:16.290Z,22.00
2022-12-16T08:14:02.467Z,21.05
2022-12-16T08:16:48.565Z,23.77
2022-12-16T08:19:34.644Z,25.08
2022-12-16T08:22:20.557Z,20.73
2022-12-16T08:25:06.539Z,21.00
2022-12-16T08:27:52.370Z,21.60
2022-12-16T08:30:38.668Z,19.45
2022-12-16T08:33:24.758Z,22.00
2022-12-16T08:36:11.335Z,19.92
2022-12-16T08:38:57.381Z,18.52
2022-12-16T08:41:44.022Z,22.08
2022-12-16T08:44:30.207Z,22.30
2022-12-16T08:47:16.026Z,24.27
2022-12-16T08:50:02.512Z,24.73
2022-12-16T08:52:50.391Z,22.48
2022-12-16T08:55:36.460Z,22.35
2022-12-16T08:58:22.387Z,21.65
2022-12-16T09:01:08.577Z,22.25
2022-12-16T09:03:55.378Z,19.67
2022-12-16T09:06:41.523Z,20.05
2022-12-16T09:09:28.669Z,17.50
2022-12-16T09:12:14.414Z,18.20
2022-12-16T09:15:00.433Z,19.63
2022-12-16T09:17:46.264Z,20.48
2022-12-16T09:20:32.240Z,19.73
2022-12-16T09:23:24.211Z,18.38
2022-12-16T09:26:10.308Z,22.90
2022-12-16T09:28:57.417Z,23.23
2022-12-16T09:31:43.930Z,18.23
2022-12-16T09:34:29.933Z,14.98
2022-12-16T09:37:15.834Z,17.02
2022-12-16T09:40:01.847Z,16.58
2022-12-16T09:43:09.718Z,15.52
2022-12-16T09:46:14.893Z,15.35
2022-12-16T09:49:23.407Z,15.75
2022-12-16T09:52:16.510Z,14.43
2022-12-16T09:55:06.323Z,15.25
2022-12-16T09:57:55.678Z,14.68
2022-12-16T10:00:45.664Z,14.80
2022-12-16T10:03:40.381Z,15.68
2022-12-16T10:07:00.614Z,14.52
2022-12-16T10:09:49.385Z,12.85
2022-12-16T10:12:38.335Z,14.15
2022-12-16T10:15:50.544Z,13.65
2022-12-16T10:19:03.013Z,12.85
2022-12-16T10:21:58.181Z,13.98
2022-12-16T10:25:27.044Z,15.50
2022-12-16T10:28:25.719Z,14.60
2022-12-16T10:31:12.130Z,14.90
2022-12-16T10:33:59.350Z,13.60
2022-12-16T10:36:46.149Z,13.25
2022-12-16T10:39:47.484Z,12.02
2022-12-16T10:42:47.099Z,13.95
2022-12-16T10:45:44.272Z,11.15
2022-12-16T10:48:32.011Z,12.52
2022-12-16T10:51:31.805Z,14.95
2022-12-16T10:54:31.703Z,12.93
2022-12-16T10:57:31.293Z,14.20
2022-12-16T11:00:37.391Z,12.38
2022-12-16T11:03:41.553Z,14.95
2022-12-16T11:06:29.362Z,14.82
2022-12-16T11:09:15.260Z,17.13
2022-12-16T11:12:01.067Z,17.42
2022-12-16T11:15:05.676Z,18.70
2022-12-16T11:17:52.765Z,16.80
2022-12-16T11:20:47.949Z,17.15
2022-12-16T11:23:34.385Z,14.30
2022-12-16T11:26:35.875Z,19.90
2022-12-16T11:29:35.966Z,15.77
2022-12-16T11:32:50.586Z,17.80
2022-12-16T11:35:41.216Z,19.00
2022-12-16T11:38:37.554Z,20.45
2022-12-16T11:41:24.623Z,18.52
2022-12-16T11:44:12.573Z,19.80
2022-12-16T11:46:58.475Z,16.90
2022-12-16T11:49:51.158Z,20.33
2022-12-16T11:52:39.568Z,18.73
2022-12-16T11:56:03.384Z,16.55
2022-12-16T11:58:43.144Z,17.00
2022-12-16T12:01:51.300Z,16.90
2022-12-16T12:04:37.856Z,15.27
2022-12-16T12:07:41.226Z,18.50
2022-12-16T12:11:02.779Z,16.15
2022-12-16T12:14:05.518Z,15.98
2022-12-16T12:17:05.507Z,19.85
2022-12-16T12:20:17.369Z,17.02
2022-12-16T12:23:04.792Z,21.52
2022-12-16T12:26:32.964Z,18.65
2022-12-16T12:29:34.049Z,18.92
2022-12-16T12:32:44.356Z,17.60
2022-12-16T12:35:36.407Z,17.38
2022-12-16T12:38:30.376Z,17.02
2022-12-16T12:41:19.784Z,19.23
2022-12-16T12:44:13.034Z,19.85
2022-12-16T12:47:11.462Z,15.98
2022-12-16T12:50:04.823Z,15.73
2022-12-16T12:53:22.152Z,17.70
2022-12-16T12:56:45.384Z,16.83
2022-12-16T13:00:03.149Z,18.80
2022-12-16T13:03:03.720Z,15.57
2022-12-16T13:05:52.710Z,17.92
2022-12-16T13:09:03.136Z,16.15
2022-12-16T13:11:49.019Z,17.05
2022-12-16T13:14:50.363Z,15.15
2022-12-16T13:17:39.689Z,20.48
2022-12-16T13:20:50.443Z,16.98
2022-12-16T13:23:46.608Z,15.02
2022-12-16T13:26:38.812Z,16.95
2022-12-16T13:32:41.623Z,16.90
2022-12-16T13:35:27.465Z,16.60
2022-12-16T13:38:14.935Z,16.95
2022-12-16T13:41:13.212Z,14.05
2022-12-16T13:44:13.874Z,17.15
2022-12-16T13:47:12.138Z,14.05
2022-12-16T13:50:09.866Z,18.92
2022-12-16T13:53:15.298Z,16.00
2022-12-16T13:56:19.018Z,18.77
2022-12-16T13:59:08.253Z,17.58
2022-12-16T14:02:01.857Z,16.80
2022-12-16T14:05:16.329Z,17.15
2022-12-16T14:08:02.993Z,16.55
2022-12-16T14:10:53.282Z,14.85
2022-12-16T14:14:15.039Z,17.95
2022-12-16T14:17:11.017Z,18.15
2022-12-16T14:20:12.518Z,16.00
2022-12-16T14:23:55.267Z,20.13
2022-12-16T14:26:35.539Z,18.33
2022-12-16T14:29:30.339Z,23.00
2022-12-16T14:32:16.407Z,19.13
2022-12-16T14:35:02.252Z,25.95
2022-12-16T14:37:53.790Z,22.48
2022-12-16T14:40:44.422Z,20.35
2022-12-16T14:43:37.000Z,18.15
2022-12-16T14:46:23.545Z,21.77
2022-12-16T14:49:10.383Z,22.42
2022-12-16T14:52:07.062Z,21.02
2022-12-16T14:55:01.728Z,17.30
2022-12-16T14:57:50.653Z,21.05
2022-12-16T15:00:42.296Z,20.67
2022-12-16T15:03:44.543Z,18.88
2022-12-16T15:06:40.659Z,21.70
2022-12-16T15:09:36.188Z,21.17
2022-12-16T15:12:22.464Z,20.58
2022-12-16T15:15:10.300Z,20.10
2022-12-16T15:18:19.380Z,23.13
2022-12-16T15:21:11.242Z,23.38
2022-12-16T15:24:00.254Z,20.02
2022-12-16T15:26:49.728Z,20.48
2022-12-16T15:30:02.096Z,20.40
2022-12-16T15:32:53.576Z,20.45
2022-12-16T15:35:43.699Z,22.13
2022-12-16T15:38:51.465Z,23.20
2022-12-16T15:41:52.174Z,20.48
2022-12-16T15:44:46.267Z,20.90
2022-12-16T15:47:50.491Z,21.87
2022-12-16T15:50:47.493Z,21.50
2022-12-16T15:53:48.892Z,28.15
2022-12-16T15:56:41.981Z,21.33
2022-12-16T15:59:45.260Z,24.20
2022-12-16T16:02:44.166Z,21.40
2022-12-16T16:05:41.685Z,25.00
2022-12-16T16:08:30.826Z,24.83
2022-12-16T16:11:16.871Z,21.17
2022-12-16T16:14:08.287Z,24.38
2022-12-16T16:17:15.164Z,27.02
2022-12-16T16:20:03.826Z,26.92
2022-12-16T16:22:50.202Z,24.98
2022-12-16T16:25:35.915Z,29.38
2022-12-16T16:28:21.929Z,25.17
2022-12-16T16:31:07.897Z,27.58
2022-12-16T16:33:53.823Z,28.45
2022-12-16T16:36:39.478Z,25.05
2022-12-16T16:39:25.382Z,28.00
2022-12-16T16:42:11.196Z,29.20
2022-12-16T16:44:57.225Z,27.95
2022-12-16T16:47:43.288Z,28.27
2022-12-16T16:50:33.229Z,27.25
2022-12-16T16:53:19.187Z,34.47
2022-12-16T16:56:22.543Z,27.42
2022-12-16T16:59:08.124Z,28.88
2022-12-16T17:01:54.468Z,29.85
2022-12-16T17:04:40.618Z,32.58
2022-12-16T17:07:26.297Z,29.98
2022-12-16T17:10:12.292Z,32.22
2022-12-16T17:13:04.431Z,32.75
2022-12-16T17:15:56.200Z,31.67
2022-12-16T17:18:46.649Z,33.53
2022-12-16T17:21:33.789Z,32.03
2022-12-16T17:24:19.809Z,35.65
2022-12-16T17:27:08.496Z,35.40
2022-12-16T17:29:54.506Z,35.38
2022-12-16T17:32:40.926Z,30.75
2022-12-16T17:35:31.802Z,32.85
2022-12-16T17:38:17.776Z,37.33
2022-12-16T17:41:10.433Z,33.75
2022-12-16T17:43:56.367Z,37.60
2022-12-16T17:46:43.572Z,38.13
2022-12-16T17:49:29.601Z,33.38
2022-12-16T17:52:18.763Z,39.42
2022-12-16T17:55:04.697Z,37.40
2022-12-16T17:57:50.607Z,36.03
2022-12-16T18:00:36.445Z,34.15
2022-12-16T18:03:23.314Z,35.72
2022-12-16T18:06:15.300Z,35.40
2022-12-16T18:09:01.165Z,35.97
2022-12-16T18:11:47.068Z,33.45
2022-12-16T18:14:32.982Z,35.38
2022-12-16T18:17:18.704Z,36.53
2022-12-16T18:20:05.981Z,38.88
2022-12-16T18:22:51.710Z,39.67
2022-12-16T18:25:37.701Z,38.75
2022-12-16T18:28:23.744Z,37.42
2022-12-16T18:31:09.786Z,36.50
2022-12-16T18:33:55.933Z,37.50
2022-12-16T18:36:41.888Z,37.90
2022-12-16T18:39:30.853Z,36.80
2022-12-16T18:42:16.639Z,37.20
2022-12-16T18:45:02.682Z,37.90
2022-12-16T18:48:09.708Z,40.25
2022-12-16T18:50:56.245Z,41.70
2022-12-16T18:53:42.237Z,42.63
2022-12-16T18:56:28.596Z,40.25
2022-12-16T18:59:14.615Z,39.50
2022-12-16T19:02:00.456Z,45.70
2022-12-16T19:04:46.396Z,38.58
2022-12-16T19:07:33.978Z,36.40
2022-12-16T19:10:20.180Z,38.13
2022-12-16T19:13:06.358Z,38.38
2022-12-16T19:15:52.778Z,41.40
2022-12-16T19:18:38.710Z,36.25
2022-12-16T19:21:24.725Z,36.72
2022-12-16T19:24:10.866Z,41.45
2022-12-16T19:26:56.916Z,33.67
2022-12-16T19:29:43.434Z,36.70
2022-12-16T19:32:29.494Z,37.97
2022-12-16T19:35:15.869Z,40.42
2022-12-16T19:38:01.589Z,41.35
2022-12-16T19:40:47.596Z,34.83
2022-12-16T19:43:34.976Z,38.58
2022-12-16T19:46:21.161Z,36.45
2022-12-16T19:49:07.538Z,39.50
2022-12-16T19:51:56.257Z,35.58
2022-12-16T19:54:42.456Z,32.20
2022-12-16T19:57:31.377Z,36.95
2022-12-16T20:00:19.459Z,37.38
2022-12-16T20:03:05.820Z,39.40
2022-12-16T20:05:51.821Z,32.85
2022-12-16T20:08:37.953Z,30.77
2022-12-16T20:11:28.164Z,33.47
2022-12-16T20:14:16.878Z,48.08
2022-12-16T20:17:02.509Z,36.83
2022-12-16T20:19:48.662Z,30.88
2022-12-16T20:22:35.081Z,33.60
2022-12-16T20:25:20.880Z,29.92
2022-12-16T20:28:06.924Z,30.10
2022-12-16T20:30:53.602Z,33.25
2022-12-16T20:33:42.680Z,28.63
2022-12-16T20:36:29.058Z,30.50
2022-12-16T20:39:14.985Z,34.08
2022-12-16T20:42:00.825Z,33.25
2022-12-16T20:44:47.086Z,31.05
2022-12-16T20:47:36.314Z,30.10
2022-12-16T20:50:22.865Z,31.95
2022-12-16T20:53:08.902Z,36.03
2022-12-16T20:55:56.108Z,30.52
2022-12-16T20:58:56.151Z,34.10
2022-12-16T21:04:48.210Z,29.05
2022-12-16T21:07:36.978Z,30.95
2022-12-16T21:10:23.362Z,27.63
2022-12-16T21:13:09.453Z,33.92
2022-12-16T21:15:58.932Z,30.85
2022-12-16T21:18:45.381Z,28.95
2022-12-16T21:21:31.124Z,26.42
2022-12-16T21:24:17.078Z,25.58
2022-12-16T21:27:03.246Z,29.48
2022-12-16T21:29:49.279Z,26.00
2022-12-16T21:32:46.213Z,25.50
2022-12-16T21:35:32.359Z,23.10
2022-12-16T21:38:20.178Z,22.50
2022-12-16T21:41:13.190Z,21.42
2022-12-16T21:43:59.549Z,22.65
2022-12-16T21:46:45.713Z,20.58
2022-12-16T21:49:31.764Z,26.70
2022-12-16T21:52:19.117Z,28.33
2022-12-16T21:55:05.077Z,23.45
2022-12-16T21:57:51.038Z,21.55
2022-12-16T22:00:43.731Z,22.92
2022-12-16T22:03:32.572Z,23.83
2022-12-16T22:06:18.398Z,22.88
2022-12-16T22:09:04.521Z,20.73
2022-12-16T22:11:50.647Z,20.55
2022-12-16T22:14:37.654Z,22.27
2022-12-16T22:17:24.489Z,25.30
2022-12-16T22:20:11.194Z,23.88
2022-12-16T22:22:57.472Z,22.80
2022-12-16T22:25:43.406Z,23.88
2022-12-16T22:28:29.384Z,26.13
2022-12-16T22:31:16.411Z,21.92
2022-12-16T22:34:02.693Z,20.17
2022-12-16T22:36:48.394Z,24.10
2022-12-16T22:39:34.373Z,23.17
2022-12-16T22:42:20.480Z,24.85
2022-12-16T22:45:06.177Z,25.30
2022-12-16T22:47:52.139Z,26.63
2022-12-16T22:50:38.148Z,24.38
2022-12-16T22:53:24.186Z,26.92
2022-12-16T22:56:14.363Z,35.60
2022-12-16T22:59:00.201Z,37.47
2022-12-16T23:01:46.286Z,41.17
2022-12-16T23:04:34.050Z,41.83
2022-12-16T23:07:20.083Z,37.72
2022-12-16T23:10:05.801Z,46.33
2022-12-16T23:12:52.392Z,44.08
2022-12-16T23:15:39.128Z,39.58
2022-12-16T23:18:25.361Z,39.35
2022-12-16T23:21:11.340Z,38.53
2022-12-16T23:23:57.172Z,41.13
2022-12-16T23:26:43.369Z,40.95
2022-12-16T23:29:29.345Z,49.28
2022-12-16T23:32:15.317Z,44.28
2022-12-16T23:35:01.213Z,40.28
2022-12-16T23:37:47.283Z,41.08
2022-12-16T23:40:33.391Z,43.50
2022-12-16T23:43:19.532Z,42.42
2022-12-16T23:46:05.484Z,39.08
2022-12-16T23:48:52.433Z,42.15
2022-12-16T23:51:39.273Z,40.92
2022-12-16T23:54:25.265Z,40.80
2022-12-16T23:57:11.308Z,38.05
2022-12-16T23:59:57.290Z,34.60
